Time,TemperatureF,DewpointF,PressureIn,WindDirection,WindDirectionDegrees,WindSpeedMPH,WindSpeedGustMPH,Humidity,HourlyPrecipIn,Conditions,Clouds,dailyrainin,SoftwareType,DateUTC
2013-03-10 13:00:00,38.0,31.0,29.78,North,-999,-999.0,-999.0,74,-99.99,,,-99.99,,2013-03-10 13:00:00,
2013-03-10 13:41:00,38.0,31.0,29.78,North,-999,-999.0,-999.0,74,-99.99,,,-99.99,,2013-03-10 13:41:00,
2013-03-10 13:51:00,38.0,31.0,29.78,North,-999,-999.0,-999.0,74,-99.99,,,-99.99,,2013-03-10 13:51:00,
2013-03-10 14:00:00,37.0,29.0,29.78,North,-999,-999.0,-999.0,70,-99.99,,,-99.99,,2013-03-10 14:00:00,
2013-03-10 14:41:00,37.0,29.0,29.78,North,-999,-999.0,-999.0,70,-99.99,,,-99.99,,2013-03-10 14:41:00,
2013-03-10 14:51:00,37.0,29.0,29.78,North,-999,-999.0,-999.0,70,-99.99,,,-99.99,,2013-03-10 14:51:00,
2013-03-10 15:00:00,39.0,28.0,29.83,North,-999,-999.0,-999.0,65,-99.99,,,-99.99,,2013-03-10 15:00:00,
2013-03-10 15:41:00,39.0,28.0,29.83,North,-999,-999.0,-999.0,65,-99.99,,,-99.99,,2013-03-10 15:41:00,
2013-03-10 15:51:00,39.0,28.0,29.83,North,-999,-999.0,-999.0,65,-99.99,,,-99.99,,2013-03-10 15:51:00,
2013-03-10 16:00:00,39.0,26.0,29.85,North,-999,-999.0,-999.0,61,-99.99,,,-99.99,,2013-03-10 16:00:00,
2013-03-10 16:41:00,39.0,26.0,29.85,North,-999,-999.0,-999.0,61,-99.99,,,-99.99,,2013-03-10 16:41:00,
2013-03-10 16:51:00,39.0,26.0,29.85,North,-999,-999.0,-999.0,61,-99.99,,,-99.99,,2013-03-10 16:51:00,
2013-03-10 17:00:00,39.0,27.0,29.85,North,-999,-999.0,-999.0,61,-99.99,,,-99.99,,2013-03-10 17:00:00,
2013-03-10 17:41:00,39.0,27.0,29.85,North,-999,-999.0,-999.0,61,-99.99,,,-99.99,,2013-03-10 17:41:00,
2013-03-10 17:51:00,39.0,27.0,29.85,North,-999,-999.0,-999.0,61,-99.99,,,-99.99,,2013-03-10 17:51:00,
2013-03-10 18:00:00,39.0,26.0,29.86,North,-999,-999.0,-999.0,60,-99.99,,,-99.99,,2013-03-10 18:00:00,
2013-03-10 18:41:00,39.0,26.0,29.86,North,-999,-999.0,-999.0,60,-99.99,,,-99.99,,2013-03-10 18:41:00,
2013-03-10 18:52:00,39.0,26.0,29.86,North,-999,-999.0,-999.0,60,-99.99,,,-99.99,,2013-03-10 18:52:00,
2013-03-10 19:00:00,39.0,25.0,29.88,North,-999,-999.0,-999.0,58,-99.99,,,-99.99,,2013-03-10 19:00:00,
2013-03-10 19:41:00,39.0,25.0,29.88,North,-999,-999.0,-999.0,58,-99.99,,,-99.99,,2013-03-10 19:41:00,
2013-03-10 19:52:00,39.0,25.0,29.88,North,-999,-999.0,-999.0,58,-99.99,,,-99.99,,2013-03-10 19:52:00,
2013-03-10 20:00:00,38.0,24.0,29.90,North,-999,-999.0,-999.0,55,-99.99,,,-99.99,,2013-03-10 20:00:00,
2013-03-10 20:31:00,38.0,24.0,29.90,North,-999,-999.0,-999.0,55,-99.99,,,-99.99,,2013-03-10 20:31:00,
2013-03-10 20:42:00,38.0,24.0,29.90,North,-999,-999.0,-999.0,55,-99.99,,,-99.99,,2013-03-10 20:42:00,
2013-03-10 20:52:00,38.0,24.0,29.90,North,-999,-999.0,-999.0,55,-99.99,,,-99.99,,2013-03-10 20:52:00,
2013-03-10 21:00:00,36.0,19.0,29.92,North,-999,-999.0,-999.0,49,-99.99,,,-99.99,,2013-03-10 21:00:00,
2013-03-10 21:41:00,36.0,19.0,29.92,North,-999,-999.0,-999.0,49,-99.99,,,-99.99,,2013-03-10 21:41:00,
2013-03-10 21:51:00,36.0,19.0,29.92,North,-999,-999.0,-999.0,49,-99.99,,,-99.99,,2013-03-10 21:51:00,
2013-03-10 22:00:00,36.0,17.0,29.92,North,-999,-999.0,-999.0,46,-99.99,,,-99.99,,2013-03-10 22:00:00,
2013-03-10 22:41:00,36.0,17.0,29.92,North,-999,-999.0,-999.0,46,-99.99,,,-99.99,,2013-03-10 22:41:00,
2013-03-10 22:52:00,36.0,17.0,29.92,North,-999,-999.0,-999.0,46,-99.99,,,-99.99,,2013-03-10 22:52:00,
2013-03-10 23:00:00,36.0,21.0,29.85,North,-999,-999.0,-999.0,54,-99.99,,,-99.99,,2013-03-10 23:00:00,
2013-03-10 23:41:00,36.0,21.0,29.85,North,-999,-999.0,-999.0,54,-99.99,,,-99.99,,2013-03-10 23:41:00,
2013-03-10 23:51:00,36.0,21.0,29.85,North,-999,-999.0,-999.0,54,-99.99,,,-99.99,,2013-03-10 23:51:00,